Terminal Aerodrome Forecast
Issued by NWS

Home | Current Version | Previous Version | Text Only | Print | Product List | Glossary On
Versions: 1 2 3 4 5 6 7 8 9 10 11 12 13 14 15 16 17 18 19 20 21
000
FTUS41 KBOX 261725
TAFACK
TAF
KACK 261725Z 2618/2718 08012G22KT P6SM OVC070
     FM270500 11012KT P6SM VCSH OVC040
     FM270900 11015KT P6SM VCSH OVC015
     FM271000 11015KT P6SM -RA OVC015
     FM271200 12016KT 6SM -RA OVC008
     FM271600 14015G22KT 3SM -RA OVC015=

USA.gov is the U.S. government's official web portal to all federal, state and local government web resources and services.